createdAt,value
2017-12-20T13:43:52.807Z,38.30
2017-12-20T13:44:52.727Z,56.00
2017-12-20T13:45:52.718Z,60.10
2017-12-20T13:46:52.687Z,68.20
2017-12-20T13:47:52.656Z,60.60
2017-12-20T13:48:52.628Z,67.00
2017-12-20T13:49:52.603Z,66.80
2017-12-20T13:50:52.624Z,54.30
2017-12-20T13:51:52.551Z,62.50
2017-12-20T13:52:52.579Z,63.80
2017-12-20T13:53:52.500Z,61.90
2017-12-20T13:54:52.482Z,57.90
2017-12-20T13:55:52.471Z,57.30
2017-12-20T13:56:52.447Z,61.90
2017-12-20T13:57:52.419Z,63.50
2017-12-20T13:58:52.409Z,55.10
2017-12-20T13:59:52.426Z,54.00
2017-12-20T14:00:52.420Z,51.90
2017-12-20T14:01:52.426Z,50.10
2017-12-20T14:02:52.362Z,44.70
2017-12-20T14:03:52.312Z,44.10
2017-12-20T14:04:52.283Z,49.30
2017-12-20T14:05:52.358Z,43.70
2017-12-20T14:06:52.258Z,49.00
2017-12-20T14:07:52.257Z,45.10
2017-12-20T14:08:52.270Z,48.00
2017-12-20T14:09:52.230Z,51.10
2017-12-20T14:10:52.188Z,55.10
2017-12-20T14:11:52.148Z,50.30
2017-12-20T14:12:52.214Z,46.40
2017-12-20T14:13:52.129Z,42.10
2017-12-20T14:14:52.171Z,44.80
2017-12-20T14:15:52.115Z,47.80
2017-12-20T14:16:52.067Z,48.70
2017-12-20T14:17:52.056Z,50.00
2017-12-20T14:18:52.022Z,48.10
2017-12-20T14:19:52.004Z,46.30
2017-12-20T14:20:51.979Z,46.40
2017-12-20T14:21:51.969Z,47.10
2017-12-20T14:22:51.997Z,44.20
2017-12-20T14:23:51.982Z,38.80
2017-12-20T14:24:51.925Z,40.40
2017-12-20T14:25:51.971Z,44.80
2017-12-20T14:26:51.919Z,43.70
2017-12-20T14:27:51.851Z,43.00
2017-12-20T14:28:51.828Z,40.60
2017-12-20T14:29:51.832Z,39.00
2017-12-20T14:30:51.825Z,39.40
2017-12-20T14:31:51.778Z,39.70
2017-12-20T14:32:51.760Z,46.60
2017-12-20T14:33:51.748Z,47.10
2017-12-20T14:34:51.721Z,47.50
2017-12-20T14:35:51.725Z,49.50
2017-12-20T14:36:51.689Z,43.50
2017-12-20T14:37:51.696Z,44.10
2017-12-20T14:38:51.662Z,37.90
2017-12-20T14:39:51.704Z,40.40
2017-12-20T14:40:51.611Z,48.70
2017-12-20T14:41:51.601Z,46.50
2017-12-20T14:42:51.580Z,40.20
2017-12-20T14:43:51.599Z,36.20
2017-12-20T14:44:51.558Z,39.20
2017-12-20T14:45:51.551Z,41.50
2017-12-20T14:46:51.530Z,45.30
2017-12-20T14:47:51.493Z,41.50
2017-12-20T14:48:51.479Z,42.00
2017-12-20T14:49:51.448Z,40.80
2017-12-20T14:50:51.438Z,43.40
2017-12-20T14:51:51.446Z,41.50
2017-12-20T14:52:51.560Z,56.60
2017-12-20T14:53:51.385Z,50.30
2017-12-20T14:54:51.369Z,50.40
2017-12-20T14:55:51.409Z,41.90
2017-12-20T14:56:51.365Z,51.60
2017-12-20T14:57:51.332Z,51.00
2017-12-20T14:58:51.318Z,48.60
2017-12-20T14:59:51.259Z,47.20
2017-12-20T15:00:51.537Z,59.00
2017-12-20T15:01:51.243Z,50.60
2017-12-20T15:02:51.215Z,55.30
2017-12-20T15:03:51.208Z,49.10
2017-12-20T15:04:51.226Z,53.20
2017-12-20T15:05:51.228Z,53.10
2017-12-20T15:06:51.151Z,57.50
2017-12-20T15:07:51.135Z,50.60
2017-12-20T15:08:51.115Z,48.00
2017-12-20T15:09:51.077Z,53.80
2017-12-20T15:10:51.108Z,52.00
2017-12-20T15:11:51.051Z,48.50
2017-12-20T15:12:51.035Z,60.20
2017-12-20T15:13:51.010Z,51.50
2017-12-20T15:14:51.000Z,49.10
2017-12-20T15:15:50.996Z,45.60
2017-12-20T15:16:50.957Z,47.50
2017-12-20T15:17:50.940Z,49.50
2017-12-20T15:18:50.923Z,49.40
2017-12-20T15:19:50.964Z,48.10
2017-12-20T15:20:50.883Z,45.80
2017-12-20T15:21:50.866Z,52.80
2017-12-20T15:22:50.840Z,52.10
2017-12-20T15:23:50.844Z,50.20
2017-12-20T15:24:50.815Z,64.60
2017-12-20T15:25:50.856Z,61.10
2017-12-20T15:26:50.778Z,53.70
2017-12-20T15:27:50.750Z,57.80
2017-12-20T15:28:50.734Z,58.50
2017-12-20T15:29:50.710Z,54.70
2017-12-20T15:30:50.730Z,47.70
2017-12-20T15:31:50.678Z,47.40
2017-12-20T15:32:50.660Z,50.00
2017-12-20T15:33:50.629Z,49.40
2017-12-20T15:34:50.615Z,50.00
2017-12-20T15:35:50.598Z,55.90
2017-12-20T15:36:50.612Z,62.20
2017-12-20T15:37:50.592Z,57.70
2017-12-20T15:38:50.691Z,56.00
2017-12-20T15:39:50.536Z,58.00
2017-12-20T15:40:50.509Z,53.60
2017-12-20T15:41:50.554Z,55.60
2017-12-20T15:42:50.493Z,53.00
2017-12-20T15:43:50.641Z,51.40
2017-12-20T15:44:50.457Z,51.40
2017-12-20T15:45:50.417Z,49.90
2017-12-20T15:46:50.411Z,53.90
2017-12-20T15:47:50.403Z,55.20
2017-12-20T15:48:50.533Z,54.20
2017-12-20T15:49:50.468Z,53.30
2017-12-20T15:50:50.409Z,52.90
2017-12-20T15:51:50.320Z,53.90
2017-12-20T15:52:50.334Z,54.20
2017-12-20T15:53:50.284Z,52.20
2017-12-20T15:54:50.284Z,57.30
2017-12-20T15:55:50.299Z,55.90
2017-12-20T15:56:50.242Z,54.10
2017-12-20T15:57:50.198Z,56.80
2017-12-20T15:58:50.184Z,52.50
2017-12-20T15:59:50.210Z,56.30
2017-12-20T16:00:50.148Z,55.80
2017-12-20T16:01:50.129Z,54.40
2017-12-20T16:02:50.102Z,56.20
2017-12-20T16:03:50.116Z,63.20
2017-12-20T16:04:50.106Z,61.10
2017-12-20T16:05:50.064Z,57.60
2017-12-20T16:06:50.091Z,58.70
2017-12-20T16:07:50.038Z,56.40
2017-12-20T16:08:50.029Z,63.30
2017-12-20T16:09:49.980Z,64.80
2017-12-20T16:10:49.967Z,65.60
2017-12-20T16:11:49.956Z,63.80
2017-12-20T16:12:49.937Z,70.10
2017-12-20T16:13:49.906Z,68.50
2017-12-20T16:14:49.883Z,62.10
2017-12-20T16:15:49.886Z,67.80
2017-12-20T16:16:49.857Z,67.30
2017-12-20T16:17:49.843Z,72.50
2017-12-20T16:18:49.807Z,73.00
2017-12-20T16:19:49.791Z,74.90
2017-12-20T16:20:49.781Z,83.50
2017-12-20T16:21:49.766Z,74.90
2017-12-20T16:22:49.753Z,70.60
2017-12-20T16:23:49.724Z,81.10
2017-12-20T16:24:49.717Z,81.70
2017-12-20T16:25:49.712Z,85.70
2017-12-20T16:26:49.661Z,80.60
2017-12-20T16:27:50.620Z,76.10
2017-12-20T16:28:49.687Z,85.40
2017-12-20T16:29:49.701Z,91.50
2017-12-20T16:30:49.589Z,83.40
2017-12-20T16:31:49.590Z,84.20
2017-12-20T16:32:49.569Z,86.90
2017-12-20T16:33:49.534Z,81.60
2017-12-20T16:34:49.519Z,86.90
2017-12-20T16:35:49.565Z,84.80
2017-12-20T16:36:49.494Z,87.40
2017-12-20T16:37:49.476Z,84.00
2017-12-20T16:38:49.474Z,87.50
2017-12-20T16:39:49.434Z,92.90
2017-12-20T16:40:49.420Z,86.60
2017-12-20T16:41:49.430Z,88.10
2017-12-20T16:42:49.391Z,85.50
2017-12-20T16:43:49.345Z,94.40
2017-12-20T16:44:49.328Z,91.80
2017-12-20T16:45:49.347Z,94.20
2017-12-20T16:46:49.297Z,98.80
2017-12-20T16:47:49.291Z,105.20
2017-12-20T16:48:49.261Z,94.40
2017-12-20T16:49:49.280Z,93.60
2017-12-20T16:50:49.247Z,99.90
2017-12-20T16:51:49.216Z,101.70
2017-12-20T16:52:49.182Z,116.40
2017-12-20T16:53:49.166Z,116.60
2017-12-20T16:54:49.147Z,115.50
2017-12-20T16:55:49.123Z,98.40
2017-12-20T16:56:49.143Z,103.10
2017-12-20T16:57:49.094Z,97.00
2017-12-20T16:58:49.075Z,107.70
2017-12-20T16:59:49.086Z,106.10
2017-12-20T17:00:49.037Z,105.60
2017-12-20T17:01:49.028Z,92.50
2017-12-20T17:02:49.009Z,93.20
2017-12-20T17:03:49.000Z,102.80
2017-12-20T17:04:48.978Z,98.30
2017-12-20T17:05:48.964Z,95.30
2017-12-20T17:06:48.984Z,99.30
2017-12-20T17:07:48.922Z,105.10
2017-12-20T17:08:48.890Z,102.90
2017-12-20T17:09:48.877Z,108.40
2017-12-20T17:10:48.900Z,103.50
2017-12-20T17:11:48.845Z,107.80
2017-12-20T17:12:48.818Z,114.10
2017-12-20T17:13:48.809Z,117.10
2017-12-20T17:14:48.785Z,114.60
2017-12-20T17:15:48.773Z,112.60
2017-12-20T17:16:48.752Z,113.70
2017-12-20T17:17:48.737Z,119.60
2017-12-20T17:18:48.710Z,110.70
2017-12-20T17:19:48.731Z,106.40
2017-12-20T17:20:48.681Z,109.30
2017-12-20T17:21:48.655Z,125.00
2017-12-20T17:22:48.642Z,129.50
2017-12-20T17:23:48.608Z,115.10
2017-12-20T17:24:48.606Z,126.80
2017-12-20T17:25:48.598Z,116.50
2017-12-20T17:26:48.563Z,122.10
2017-12-20T17:27:48.569Z,134.70
2017-12-20T17:28:48.520Z,123.20
2017-12-20T17:29:48.543Z,110.50
2017-12-20T17:30:48.484Z,114.20
2017-12-20T17:31:48.471Z,111.40
2017-12-20T17:32:48.459Z,118.20
2017-12-20T17:33:48.620Z,111.30
2017-12-20T17:34:48.416Z,109.30
2017-12-20T17:35:48.417Z,120.70
2017-12-20T17:36:48.382Z,115.00
2017-12-20T17:37:48.365Z,116.50
2017-12-20T17:38:48.341Z,120.40
2017-12-20T17:39:48.344Z,112.10
2017-12-20T17:40:48.317Z,114.50
2017-12-20T17:41:48.314Z,114.80
2017-12-20T17:42:48.272Z,112.10
2017-12-20T17:43:48.251Z,124.90
2017-12-20T17:44:48.236Z,100.70
2017-12-20T17:45:48.212Z,102.10
2017-12-20T17:46:48.196Z,109.80
2017-12-20T17:47:48.174Z,111.50
2017-12-20T17:48:48.177Z,124.10
2017-12-20T17:49:48.142Z,111.60
2017-12-20T17:50:48.117Z,113.60
2017-12-20T17:51:48.100Z,118.30
2017-12-20T17:52:48.098Z,108.70
2017-12-20T17:53:48.072Z,119.30
2017-12-20T17:54:48.074Z,118.50
2017-12-20T17:55:48.027Z,111.00
2017-12-20T17:56:48.026Z,114.00
2017-12-20T17:57:48.006Z,111.30
2017-12-20T17:58:47.979Z,119.60
2017-12-20T17:59:47.972Z,125.80
2017-12-20T18:00:47.934Z,127.40
2017-12-20T18:01:47.942Z,129.50
2017-12-20T18:02:47.936Z,118.30
2017-12-20T18:03:47.880Z,126.10
2017-12-20T18:04:47.868Z,124.80
2017-12-20T18:05:47.859Z,126.30
2017-12-20T18:06:47.847Z,129.70
2017-12-20T18:07:47.809Z,130.90
2017-12-20T18:08:47.835Z,129.20
2017-12-20T18:09:47.806Z,136.10
2017-12-20T18:10:47.753Z,137.60
2017-12-20T18:11:47.732Z,143.30
2017-12-20T18:12:47.724Z,131.60
2017-12-20T18:13:47.707Z,130.40
2017-12-20T18:14:47.723Z,130.40
2017-12-20T18:15:47.671Z,139.40
2017-12-20T18:16:47.669Z,133.50
2017-12-20T18:17:47.623Z,142.30
2017-12-20T18:18:47.603Z,148.60
2017-12-20T18:19:47.583Z,145.90
2017-12-20T18:20:47.579Z,150.90
2017-12-20T18:21:47.605Z,147.20
2017-12-20T18:22:47.559Z,148.10
2017-12-20T18:23:47.522Z,141.20
2017-12-20T18:24:47.525Z,150.90
2017-12-20T18:25:47.475Z,136.30
2017-12-20T18:26:47.452Z,122.50
2017-12-20T18:27:47.447Z,129.40
2017-12-20T18:28:47.437Z,133.90
2017-12-20T18:29:47.420Z,122.50
2017-12-20T18:30:47.420Z,120.60
2017-12-20T18:31:47.362Z,120.10
2017-12-20T18:32:47.363Z,119.90
2017-12-20T18:33:47.342Z,130.20
2017-12-20T18:34:47.318Z,127.10
2017-12-20T18:35:47.298Z,117.50
2017-12-20T18:36:47.300Z,102.40
2017-12-20T18:37:47.262Z,106.30
2017-12-20T18:38:47.230Z,114.20
2017-12-20T18:39:47.213Z,113.50
2017-12-20T18:40:47.224Z,106.90
2017-12-20T18:41:47.200Z,125.30
2017-12-20T18:42:47.176Z,116.60
2017-12-20T18:43:47.139Z,108.60
2017-12-20T18:44:47.129Z,111.50
2017-12-20T18:45:47.120Z,111.70
2017-12-20T18:46:47.096Z,121.40
2017-12-20T18:47:47.247Z,118.40
2017-12-20T18:48:47.078Z,111.40
2017-12-20T18:49:47.050Z,114.70
2017-12-20T18:50:47.026Z,109.90
2017-12-20T18:51:46.995Z,99.70
2017-12-20T18:52:46.986Z,105.60
2017-12-20T18:53:46.954Z,99.50
2017-12-20T18:54:46.933Z,98.10
2017-12-20T18:55:46.939Z,101.40
2017-12-20T18:56:46.918Z,101.10
2017-12-20T18:57:46.882Z,100.10
2017-12-20T18:58:46.860Z,95.90
2017-12-20T18:59:46.872Z,101.30
2017-12-20T19:00:46.856Z,98.00
2017-12-20T19:01:46.862Z,93.50
2017-12-20T19:02:46.837Z,88.60
2017-12-20T19:03:46.765Z,84.10
2017-12-20T19:04:46.746Z,91.00
2017-12-20T19:06:46.802Z,86.90
2017-12-20T19:07:46.696Z,86.90
2017-12-20T19:08:46.700Z,81.30
2017-12-20T19:09:46.770Z,81.30
2017-12-20T19:10:46.634Z,84.40
2017-12-20T19:11:46.622Z,78.10
2017-12-20T19:12:46.620Z,79.00
2017-12-20T19:13:46.785Z,77.20
2017-12-20T19:14:46.610Z,71.40
2017-12-20T19:15:46.555Z,73.70
2017-12-20T19:16:46.543Z,78.90
2017-12-20T19:17:46.617Z,84.60
2017-12-20T19:18:46.590Z,75.20
2017-12-20T19:19:46.470Z,80.90
2017-12-20T19:20:46.445Z,85.30
2017-12-20T19:21:46.486Z,84.30
2017-12-20T19:22:46.442Z,76.50
2017-12-20T19:23:46.504Z,79.20
2017-12-20T19:24:46.389Z,83.00
2017-12-20T19:25:46.554Z,81.10
2017-12-20T19:26:46.404Z,80.50
2017-12-20T19:27:46.376Z,72.40
2017-12-20T19:28:46.323Z,84.30
2017-12-20T19:29:47.143Z,76.30
2017-12-20T19:30:46.276Z,81.70
2017-12-20T19:31:46.250Z,80.10
2017-12-20T19:32:46.234Z,88.00
2017-12-20T19:33:46.226Z,81.10
2017-12-20T19:34:46.214Z,79.00
2017-12-20T19:35:46.179Z,88.00
2017-12-20T19:36:46.158Z,81.00
2017-12-20T19:37:46.185Z,77.80
2017-12-20T19:38:46.147Z,81.60
2017-12-20T19:39:46.117Z,75.70
2017-12-20T19:40:46.111Z,85.40
2017-12-20T19:41:46.061Z,69.10
2017-12-20T19:42:46.046Z,74.70
2017-12-20T19:43:46.034Z,78.00
2017-12-20T19:44:46.008Z,73.00
2017-12-20T19:45:46.655Z,71.20
2017-12-20T19:46:45.976Z,70.00
2017-12-20T19:47:45.999Z,71.10
2017-12-20T19:48:45.938Z,69.90
2017-12-20T19:49:45.912Z,75.30
2017-12-20T19:50:45.899Z,75.70
2017-12-20T19:51:45.879Z,72.30
2017-12-20T19:52:45.856Z,75.40
2017-12-20T19:53:45.843Z,69.10
2017-12-20T19:54:45.849Z,70.10
2017-12-20T19:55:45.812Z,70.50
2017-12-20T19:56:45.810Z,67.30
2017-12-20T19:57:45.843Z,67.80
2017-12-20T19:58:45.748Z,60.50
2017-12-20T19:59:45.739Z,64.70
2017-12-20T20:00:46.451Z,64.50
2017-12-20T20:01:45.691Z,61.40
2017-12-20T20:02:45.686Z,61.20
2017-12-20T20:03:45.651Z,59.60
2017-12-20T20:04:45.629Z,64.10
2017-12-20T20:05:45.616Z,62.00
2017-12-20T20:06:45.617Z,66.40
2017-12-20T20:07:45.571Z,63.90
2017-12-20T20:08:45.560Z,60.40
2017-12-20T20:09:45.554Z,61.80
2017-12-20T20:11:45.541Z,59.80
2017-12-20T20:12:45.562Z,63.70
2017-12-20T20:13:45.486Z,60.40
2017-12-20T20:14:45.458Z,55.00
2017-12-20T20:15:45.424Z,56.00
2017-12-20T20:16:45.446Z,61.60
2017-12-20T20:17:45.405Z,62.60
2017-12-20T20:18:45.373Z,61.30
2017-12-20T20:19:45.428Z,61.50
2017-12-20T20:20:45.336Z,64.10
2017-12-20T20:21:45.318Z,68.10
2017-12-20T20:22:45.297Z,62.50
2017-12-20T20:23:45.279Z,64.60
2017-12-20T20:24:45.288Z,58.10
2017-12-20T20:25:45.248Z,68.40
2017-12-20T20:26:45.238Z,63.20
2017-12-20T20:27:45.212Z,63.80
2017-12-20T20:28:45.198Z,67.10
2017-12-20T20:29:45.170Z,64.20
2017-12-20T20:30:45.154Z,64.40
2017-12-20T20:31:45.124Z,69.40
2017-12-20T20:32:45.109Z,65.80
2017-12-20T20:33:45.125Z,65.60
2017-12-20T20:34:45.095Z,79.00
2017-12-20T20:35:45.254Z,69.60
2017-12-20T20:36:45.038Z,73.00
2017-12-20T20:37:45.012Z,82.60
2017-12-20T20:38:44.998Z,75.40
2017-12-20T20:39:44.975Z,78.80
2017-12-20T20:40:44.974Z,80.90
2017-12-20T20:41:44.964Z,82.00
2017-12-20T20:42:44.923Z,75.60
2017-12-20T20:43:44.906Z,80.90
2017-12-20T20:44:44.888Z,77.30
2017-12-20T20:45:44.865Z,84.70
2017-12-20T20:46:44.863Z,80.50
2017-12-20T20:47:44.824Z,84.40
2017-12-20T20:48:44.812Z,79.90
2017-12-20T20:49:44.806Z,72.50
2017-12-20T20:50:44.782Z,72.40
2017-12-20T20:51:44.766Z,72.70
2017-12-20T20:52:44.740Z,73.50
2017-12-20T20:53:44.713Z,68.20
2017-12-20T20:54:44.703Z,74.90
2017-12-20T20:55:44.732Z,66.60
2017-12-20T20:56:44.663Z,68.10
2017-12-20T20:57:44.640Z,64.00
2017-12-20T20:58:44.636Z,69.60
2017-12-20T20:59:44.607Z,71.50
2017-12-20T21:00:44.585Z,67.50
2017-12-20T21:01:44.565Z,68.30
2017-12-20T21:02:44.557Z,59.40
2017-12-20T21:03:44.537Z,68.30
2017-12-20T21:04:44.517Z,72.20
2017-12-20T21:05:44.509Z,71.20
2017-12-20T21:06:44.495Z,70.40
2017-12-20T21:07:44.465Z,67.90
2017-12-20T21:08:44.445Z,66.70
2017-12-20T21:09:44.448Z,73.60
2017-12-20T21:10:44.414Z,68.90
2017-12-20T21:11:44.443Z,67.70
2017-12-20T21:12:44.363Z,63.30
2017-12-20T21:13:44.363Z,67.60
2017-12-20T21:14:44.336Z,61.10
2017-12-20T21:15:44.370Z,52.30
2017-12-20T21:16:44.313Z,58.50
2017-12-20T21:17:44.270Z,59.20
2017-12-20T21:18:44.252Z,59.50
2017-12-20T21:19:44.241Z,55.30
2017-12-20T21:20:44.215Z,53.60
2017-12-20T21:21:44.209Z,53.90
2017-12-20T21:22:44.187Z,56.50
2017-12-20T21:23:44.157Z,59.20
2017-12-20T21:24:44.138Z,53.10
2017-12-20T21:25:44.136Z,58.50
2017-12-20T21:26:44.107Z,56.80
2017-12-20T21:27:44.084Z,59.20
2017-12-20T21:28:44.075Z,58.00
2017-12-20T21:29:44.044Z,57.10
2017-12-20T21:30:44.030Z,59.20
2017-12-20T21:31:44.016Z,56.00
2017-12-20T21:32:43.993Z,53.70
2017-12-20T21:33:44.060Z,60.80
2017-12-20T21:34:43.967Z,56.50
2017-12-20T21:35:43.938Z,59.10
2017-12-20T21:36:43.916Z,53.40
2017-12-20T21:37:43.909Z,62.70
2017-12-20T21:38:43.885Z,62.40
2017-12-20T21:39:43.886Z,59.30
2017-12-20T21:40:43.855Z,60.10
2017-12-20T21:41:43.827Z,54.80
2017-12-20T21:42:43.811Z,54.70
2017-12-20T21:43:43.787Z,56.20
2017-12-20T21:44:43.767Z,55.70
2017-12-20T21:45:43.751Z,60.50
2017-12-20T21:46:43.735Z,56.50
2017-12-20T21:47:43.714Z,56.80
2017-12-20T21:48:43.693Z,56.60
2017-12-20T21:49:43.678Z,53.00
2017-12-20T21:50:43.659Z,57.40
2017-12-20T21:51:43.639Z,50.50
2017-12-20T21:52:43.644Z,55.30
2017-12-20T21:53:43.617Z,50.00
2017-12-20T21:54:43.617Z,56.60
2017-12-20T21:55:43.562Z,58.40
2017-12-20T21:56:43.547Z,55.00
2017-12-20T21:57:43.532Z,56.90
2017-12-20T21:58:43.516Z,57.60
2017-12-20T21:59:43.513Z,52.50
2017-12-20T22:00:43.475Z,53.10
2017-12-20T22:01:43.457Z,53.10
2017-12-20T22:02:43.438Z,55.20
2017-12-20T22:03:43.424Z,57.70
2017-12-20T22:04:43.409Z,62.10
2017-12-20T22:05:43.382Z,63.00
2017-12-20T22:06:43.368Z,58.20
2017-12-20T22:07:43.358Z,59.10
2017-12-20T22:08:43.331Z,56.70
2017-12-20T22:09:43.310Z,57.00
2017-12-20T22:10:43.293Z,63.80
2017-12-20T22:11:43.273Z,65.50
2017-12-20T22:12:43.257Z,58.90
2017-12-20T22:13:43.236Z,63.80
2017-12-20T22:14:43.217Z,61.90
2017-12-20T22:15:43.210Z,67.10
2017-12-20T22:16:43.180Z,61.00
2017-12-20T22:17:43.164Z,61.20
2017-12-20T22:18:43.138Z,60.90
2017-12-20T22:19:43.145Z,66.10
2017-12-20T22:20:43.103Z,59.70
2017-12-20T22:21:43.087Z,59.90
2017-12-20T22:22:43.063Z,54.80
2017-12-20T22:23:43.058Z,57.80
2017-12-20T22:24:43.034Z,58.20
2017-12-20T22:25:43.020Z,58.00
2017-12-20T22:26:42.994Z,57.80
2017-12-20T22:27:42.981Z,60.20
2017-12-20T22:28:42.956Z,50.50
2017-12-20T22:29:43.030Z,53.30
2017-12-20T22:30:42.916Z,54.50
2017-12-20T22:31:42.944Z,55.00
2017-12-20T22:32:42.956Z,55.30
2017-12-20T22:33:42.898Z,49.40
2017-12-20T22:34:42.856Z,54.10
2017-12-20T22:35:42.827Z,52.70
2017-12-20T22:36:42.803Z,46.20
2017-12-20T22:37:42.790Z,51.20
2017-12-20T22:38:42.769Z,55.20
2017-12-20T22:39:42.760Z,50.90
2017-12-20T22:40:42.741Z,53.20
2017-12-20T22:41:42.712Z,44.90
2017-12-20T22:42:42.725Z,52.10
2017-12-20T22:43:42.681Z,47.70
2017-12-20T22:44:42.663Z,43.80
2017-12-20T22:45:42.650Z,48.30
2017-12-20T22:46:42.630Z,46.70
2017-12-20T22:47:42.603Z,46.70
2017-12-20T22:48:42.593Z,47.40
2017-12-20T22:49:42.569Z,45.40
2017-12-20T22:50:42.548Z,42.90
2017-12-20T22:51:42.533Z,42.20
2017-12-20T22:52:42.510Z,46.40
2017-12-20T22:53:42.486Z,45.30
2017-12-20T22:54:42.470Z,44.20
2017-12-20T22:55:42.457Z,43.80
2017-12-20T22:56:42.433Z,46.90
2017-12-20T22:57:42.419Z,44.50
2017-12-20T22:58:42.393Z,44.10
2017-12-20T22:59:42.394Z,45.60
2017-12-20T23:00:42.400Z,45.80
2017-12-20T23:01:42.438Z,42.60
2017-12-20T23:02:42.321Z,40.30
2017-12-20T23:03:42.336Z,43.70
2017-12-20T23:04:42.305Z,38.70
2017-12-20T23:05:42.265Z,39.20
2017-12-20T23:06:42.244Z,43.00
2017-12-20T23:07:42.268Z,38.20
2017-12-20T23:08:42.211Z,42.70
2017-12-20T23:09:42.195Z,38.30
2017-12-20T23:10:42.174Z,37.50
2017-12-20T23:11:42.167Z,40.40
2017-12-20T23:12:42.136Z,39.80
2017-12-20T23:13:42.120Z,40.80
2017-12-20T23:14:42.097Z,37.50
2017-12-20T23:15:42.083Z,38.00
2017-12-20T23:16:42.058Z,35.10
2017-12-20T23:17:42.050Z,35.70
2017-12-20T23:18:42.033Z,39.60
2017-12-20T23:19:42.013Z,38.40
2017-12-20T23:20:41.994Z,38.20
2017-12-20T23:21:41.975Z,39.00
2017-12-20T23:22:41.951Z,36.00
2017-12-20T23:23:41.943Z,36.00
2017-12-20T23:24:41.911Z,39.10
2017-12-20T23:25:41.897Z,36.20
2017-12-20T23:26:41.910Z,33.50
2017-12-20T23:27:41.864Z,33.50
2017-12-20T23:28:41.844Z,38.40
2017-12-20T23:29:41.822Z,40.50
2017-12-20T23:30:41.804Z,37.50
2017-12-20T23:31:41.807Z,35.50
2017-12-20T23:32:41.783Z,36.90
2017-12-20T23:33:41.749Z,40.80
2017-12-20T23:34:41.735Z,40.60
2017-12-20T23:35:41.717Z,36.30
2017-12-20T23:36:41.699Z,41.20
2017-12-20T23:37:41.675Z,36.60
2017-12-20T23:38:41.664Z,37.20
2017-12-20T23:39:41.637Z,41.70
2017-12-20T23:40:41.616Z,35.30
2017-12-20T23:41:41.599Z,38.40
2017-12-20T23:42:41.593Z,39.00
2017-12-20T23:43:41.563Z,39.60
2017-12-20T23:44:41.546Z,42.10
2017-12-20T23:45:41.526Z,45.50
2017-12-20T23:46:41.510Z,38.60
2017-12-20T23:47:41.491Z,35.60
2017-12-20T23:48:41.470Z,39.10
2017-12-20T23:49:41.451Z,38.90
2017-12-20T23:50:41.433Z,42.50
2017-12-20T23:51:41.419Z,36.70
2017-12-20T23:52:41.399Z,40.10
2017-12-20T23:53:41.379Z,40.00
2017-12-20T23:54:41.362Z,38.30
2017-12-20T23:55:41.399Z,37.10
2017-12-20T23:56:41.325Z,39.20
2017-12-20T23:57:41.303Z,41.30
2017-12-20T23:58:41.286Z,41.80
2017-12-20T23:59:41.269Z,35.00
